createdAt,value
2023-12-03T00:01:13.606Z,66.75
2023-12-03T00:04:03.011Z,66.66
2023-12-03T00:06:54.110Z,67.04
2023-12-03T00:09:44.613Z,66.81
2023-12-03T00:12:33.788Z,66.66
2023-12-03T00:15:26.583Z,66.83
2023-12-03T00:18:16.821Z,66.99
2023-12-03T00:21:06.432Z,67.25
2023-12-03T00:23:56.714Z,67.06
2023-12-03T00:26:46.810Z,67.07
2023-12-03T00:29:36.687Z,67.21
2023-12-03T00:32:26.837Z,67.27
2023-12-03T00:35:18.903Z,67.29
2023-12-03T00:38:10.197Z,67.51
2023-12-03T00:41:01.904Z,67.47
2023-12-03T00:43:54.132Z,67.54
2023-12-03T00:46:43.604Z,67.14
2023-12-03T00:49:33.738Z,67.07
2023-12-03T00:52:23.048Z,67.00
2023-12-03T00:55:12.669Z,66.98
2023-12-03T00:58:01.852Z,66.76
2023-12-03T01:00:51.152Z,66.68
2023-12-03T01:03:40.214Z,66.65
2023-12-03T01:06:30.218Z,66.65
2023-12-03T01:09:20.204Z,66.98
2023-12-03T01:12:11.443Z,67.01
2023-12-03T01:15:00.302Z,66.89
2023-12-03T01:17:50.280Z,66.95
2023-12-03T01:20:41.292Z,66.92
2023-12-03T01:23:30.570Z,66.96
2023-12-03T01:26:19.915Z,67.11
2023-12-03T01:29:11.233Z,67.25
2023-12-03T01:32:01.478Z,67.10
2023-12-03T01:34:52.097Z,67.00
2023-12-03T01:37:42.251Z,66.93
2023-12-03T01:40:31.870Z,66.99
2023-12-03T01:43:20.868Z,67.11
2023-12-03T01:46:10.443Z,67.33
2023-12-03T01:49:01.715Z,67.68
2023-12-03T01:51:51.019Z,67.72
2023-12-03T01:54:44.126Z,67.80
2023-12-03T01:57:34.383Z,67.61
2023-12-03T02:00:23.640Z,67.58
2023-12-03T02:03:13.944Z,67.70
2023-12-03T02:06:12.991Z,67.79
2023-12-03T02:09:03.950Z,67.85
2023-12-03T02:11:53.921Z,67.87
2023-12-03T02:14:43.146Z,67.71
2023-12-03T02:17:32.558Z,67.68
2023-12-03T02:20:22.001Z,67.79
2023-12-03T02:23:11.284Z,67.90
2023-12-03T02:26:00.987Z,67.76
2023-12-03T02:28:50.294Z,67.59
2023-12-03T02:31:40.008Z,67.53
2023-12-03T02:34:29.815Z,67.47
2023-12-03T02:37:19.390Z,67.60
2023-12-03T02:40:09.750Z,67.82
2023-12-03T02:42:59.096Z,67.88
2023-12-03T02:45:51.370Z,68.03
2023-12-03T02:48:40.858Z,67.87
2023-12-03T02:51:30.167Z,67.90
2023-12-03T02:54:20.252Z,67.80
2023-12-03T02:57:09.822Z,67.76
2023-12-03T02:59:59.224Z,67.95
2023-12-03T03:02:49.256Z,68.08
2023-12-03T03:05:38.073Z,67.85
2023-12-03T03:08:27.528Z,67.83
2023-12-03T03:11:17.913Z,68.05
2023-12-03T03:14:08.254Z,68.14
2023-12-03T03:16:57.554Z,68.34
2023-12-03T03:19:48.603Z,68.19
2023-12-03T03:22:37.698Z,68.03
2023-12-03T03:25:27.482Z,68.01
2023-12-03T03:28:16.822Z,68.27
2023-12-03T03:31:07.197Z,68.43
2023-12-03T03:33:57.986Z,68.31
2023-12-03T03:36:49.042Z,68.46
2023-12-03T03:39:39.212Z,68.25
2023-12-03T03:42:29.842Z,68.41
2023-12-03T03:45:19.828Z,68.15
2023-12-03T03:48:10.031Z,68.54
2023-12-03T03:50:59.409Z,68.71
2023-12-03T03:53:52.785Z,68.73
2023-12-03T03:56:56.364Z,68.71
2023-12-03T03:59:49.577Z,68.61
2023-12-03T04:02:38.991Z,68.82
2023-12-03T04:05:28.894Z,68.84
2023-12-03T04:08:18.883Z,68.92
2023-12-03T04:11:09.569Z,69.07
2023-12-03T04:13:59.433Z,69.30
2023-12-03T04:16:49.793Z,69.21
2023-12-03T04:19:39.746Z,69.35
2023-12-03T04:22:29.031Z,69.23
2023-12-03T04:25:18.667Z,69.27
2023-12-03T04:28:11.518Z,69.42
2023-12-03T04:31:01.503Z,69.10
2023-12-03T04:33:52.464Z,69.28
2023-12-03T04:36:48.221Z,69.49
2023-12-03T04:39:37.956Z,69.22
2023-12-03T04:42:34.847Z,69.71
2023-12-03T04:45:23.642Z,69.35
2023-12-03T04:48:13.134Z,69.29
2023-12-03T04:51:03.394Z,69.50
2023-12-03T04:53:53.467Z,69.64
2023-12-03T04:56:43.446Z,69.57
2023-12-03T04:59:38.142Z,69.58
2023-12-03T05:02:29.783Z,69.42
2023-12-03T05:05:21.509Z,69.45
2023-12-03T05:08:12.069Z,69.33
2023-12-03T05:11:12.850Z,69.56
2023-12-03T05:14:07.835Z,69.41
2023-12-03T05:16:57.496Z,69.19
2023-12-03T05:19:49.996Z,69.30
2023-12-03T05:22:41.643Z,69.24
2023-12-03T05:25:34.567Z,69.66
2023-12-03T05:28:27.501Z,69.61
2023-12-03T05:31:17.741Z,69.51
2023-12-03T05:34:08.037Z,69.58
2023-12-03T05:36:57.565Z,69.47
2023-12-03T05:39:48.757Z,69.67
2023-12-03T05:42:47.360Z,69.62
2023-12-03T05:45:38.696Z,69.55
2023-12-03T05:48:29.805Z,69.49
2023-12-03T05:51:19.405Z,69.58
2023-12-03T05:54:10.498Z,69.43
2023-12-03T05:57:02.422Z,69.79
2023-12-03T05:59:53.209Z,69.73
2023-12-03T06:02:42.076Z,69.70
2023-12-03T06:05:33.697Z,69.85
2023-12-03T06:08:24.033Z,69.60
2023-12-03T06:11:16.698Z,69.81
2023-12-03T06:14:08.330Z,69.80
2023-12-03T06:16:59.583Z,69.58
2023-12-03T06:19:48.786Z,69.70
2023-12-03T06:22:38.381Z,69.94
2023-12-03T06:25:29.065Z,69.74
2023-12-03T06:28:18.117Z,69.79
2023-12-03T06:31:08.418Z,69.84
2023-12-03T06:33:59.653Z,69.97
2023-12-03T06:36:49.284Z,69.97
2023-12-03T06:39:38.471Z,70.04
2023-12-03T06:42:28.074Z,69.93
2023-12-03T06:45:16.867Z,69.91
2023-12-03T06:48:09.169Z,70.14
2023-12-03T06:50:59.510Z,69.92
2023-12-03T06:53:48.350Z,70.01
2023-12-03T06:56:37.498Z,70.12
2023-12-03T06:59:27.017Z,69.95
2023-12-03T07:02:15.761Z,70.04
2023-12-03T07:05:06.849Z,70.20
2023-12-03T07:07:55.872Z,70.11
2023-12-03T07:10:45.587Z,70.13
2023-12-03T07:13:34.436Z,70.19
2023-12-03T07:16:25.394Z,70.25
2023-12-03T07:19:14.402Z,70.17
2023-12-03T07:22:04.123Z,70.32
2023-12-03T07:24:54.765Z,70.75
2023-12-03T07:27:44.795Z,70.64
2023-12-03T07:30:35.621Z,70.77
2023-12-03T07:33:29.779Z,71.08
2023-12-03T07:36:21.444Z,71.16
2023-12-03T07:39:11.679Z,71.26
2023-12-03T07:42:02.734Z,70.98
2023-12-03T07:44:52.249Z,71.11
2023-12-03T07:47:41.147Z,71.15
2023-12-03T07:50:30.040Z,71.09
2023-12-03T07:53:19.680Z,71.14
2023-12-03T07:56:10.054Z,71.10
2023-12-03T07:58:59.208Z,71.41
2023-12-03T08:01:52.294Z,71.37
2023-12-03T08:04:43.403Z,71.33
2023-12-03T08:07:36.395Z,71.34
2023-12-03T08:10:28.233Z,71.42
2023-12-03T08:13:17.819Z,71.52
2023-12-03T08:16:07.526Z,71.67
2023-12-03T08:18:58.412Z,71.99
2023-12-03T08:21:49.482Z,72.08
2023-12-03T08:24:38.812Z,72.15
2023-12-03T08:27:31.323Z,71.89
2023-12-03T08:30:23.168Z,72.09
2023-12-03T08:33:12.675Z,71.80
2023-12-03T08:36:04.000Z,72.06
2023-12-03T08:38:52.924Z,71.89
2023-12-03T08:41:41.736Z,71.78
2023-12-03T08:44:30.883Z,71.92
2023-12-03T08:47:20.660Z,71.96
2023-12-03T08:50:10.193Z,72.14
2023-12-03T08:52:59.706Z,72.14
2023-12-03T08:55:48.727Z,72.05
2023-12-03T08:58:37.902Z,71.88
2023-12-03T09:01:27.628Z,72.04
2023-12-03T09:04:18.740Z,72.05
2023-12-03T09:07:14.801Z,72.01
2023-12-03T09:10:06.790Z,71.99
2023-12-03T09:13:00.096Z,71.84
2023-12-03T09:15:50.003Z,71.97
2023-12-03T09:18:40.951Z,71.83
2023-12-03T09:21:30.799Z,71.70
2023-12-03T09:24:23.230Z,71.70
2023-12-03T09:27:15.770Z,71.75
2023-12-03T09:30:08.930Z,71.69
2023-12-03T09:33:00.524Z,71.82
2023-12-03T09:35:51.951Z,71.78
2023-12-03T09:38:43.095Z,71.78
2023-12-03T09:41:35.908Z,71.99
2023-12-03T09:44:52.328Z,72.04
2023-12-03T09:47:52.195Z,71.80
2023-12-03T09:50:47.347Z,72.02
2023-12-03T09:53:43.022Z,71.91
2023-12-03T09:56:35.361Z,72.03
2023-12-03T09:59:26.348Z,72.20
2023-12-03T10:02:22.376Z,72.29
2023-12-03T10:05:12.633Z,71.97
2023-12-03T10:08:04.239Z,72.11
2023-12-03T10:11:04.604Z,72.29
2023-12-03T10:13:58.566Z,72.15
2023-12-03T10:16:56.350Z,72.25
2023-12-03T10:19:46.638Z,72.05
2023-12-03T10:22:38.898Z,72.14
2023-12-03T10:25:35.524Z,71.94
2023-12-03T10:28:26.884Z,72.03
2023-12-03T10:31:18.108Z,72.13
2023-12-03T10:34:09.123Z,72.09
2023-12-03T10:36:59.140Z,71.85
2023-12-03T10:39:49.748Z,71.91
2023-12-03T10:42:40.817Z,72.03
2023-12-03T10:45:31.151Z,72.04
2023-12-03T10:48:21.443Z,71.95
2023-12-03T10:51:12.959Z,71.92
2023-12-03T10:54:02.965Z,71.87
2023-12-03T10:57:00.106Z,72.09
2023-12-03T11:00:07.187Z,72.09
2023-12-03T11:03:26.864Z,72.49
2023-12-03T11:06:19.247Z,72.32
2023-12-03T11:09:09.828Z,72.21
2023-12-03T11:11:59.895Z,71.96
2023-12-03T11:14:50.831Z,71.83
2023-12-03T11:17:47.154Z,72.29
2023-12-03T11:20:40.765Z,72.25
2023-12-03T11:24:09.902Z,72.48
2023-12-03T11:27:00.532Z,71.89
2023-12-03T11:30:01.550Z,71.91
2023-12-03T11:32:55.988Z,72.40
2023-12-03T11:35:48.654Z,72.40
2023-12-03T11:38:38.536Z,72.79
2023-12-03T11:41:28.261Z,72.97
2023-12-03T11:44:28.060Z,73.27
2023-12-03T11:47:17.319Z,73.42
2023-12-03T11:50:08.132Z,73.40
2023-12-03T11:52:58.009Z,73.12
2023-12-03T11:55:52.109Z,73.15
2023-12-03T11:58:40.827Z,73.17
2023-12-03T12:01:31.286Z,73.29
2023-12-03T12:04:23.997Z,72.96
2023-12-03T12:07:18.699Z,72.98
2023-12-03T12:10:08.431Z,73.35
2023-12-03T12:13:01.893Z,73.48
2023-12-03T12:15:58.729Z,73.55
2023-12-03T12:18:47.964Z,73.65
2023-12-03T12:21:58.476Z,74.09
2023-12-03T12:24:48.128Z,73.65
2023-12-03T12:27:37.649Z,73.48
2023-12-03T12:30:36.007Z,73.65
2023-12-03T12:33:29.294Z,73.16
2023-12-03T12:36:18.444Z,73.48
2023-12-03T12:39:07.237Z,73.74
2023-12-03T12:42:01.480Z,73.70
2023-12-03T12:44:50.811Z,73.46
2023-12-03T12:47:43.041Z,73.65
2023-12-03T12:50:39.130Z,73.78
2023-12-03T12:53:48.978Z,73.49
2023-12-03T12:56:38.256Z,73.60
2023-12-03T12:59:28.265Z,73.45
2023-12-03T13:02:22.138Z,73.64
2023-12-03T13:05:12.957Z,73.41
2023-12-03T13:08:06.240Z,73.18
2023-12-03T13:10:56.877Z,73.30
2023-12-03T13:13:47.367Z,73.11
2023-12-03T13:16:43.539Z,73.17
2023-12-03T13:19:34.511Z,73.24
2023-12-03T13:22:24.333Z,73.11
2023-12-03T13:25:19.463Z,73.36
2023-12-03T13:28:10.017Z,73.31
2023-12-03T13:30:59.591Z,73.17
2023-12-03T13:33:50.425Z,73.12
2023-12-03T13:36:39.320Z,73.13
2023-12-03T13:39:29.350Z,73.09
2023-12-03T13:42:18.751Z,73.01
2023-12-03T13:45:09.120Z,73.13
2023-12-03T13:47:59.198Z,73.25
2023-12-03T13:50:47.875Z,73.02
2023-12-03T13:53:36.461Z,73.10
2023-12-03T13:56:25.390Z,73.19
2023-12-03T13:59:16.286Z,73.22
2023-12-03T14:02:06.872Z,73.10
2023-12-03T14:05:07.604Z,73.13
2023-12-03T14:08:04.765Z,73.02
2023-12-03T14:10:54.556Z,73.25
2023-12-03T14:13:43.568Z,73.21
2023-12-03T14:16:33.177Z,73.07
2023-12-03T14:19:22.333Z,73.20
2023-12-03T14:22:11.344Z,73.16
2023-12-03T14:25:00.953Z,73.05
2023-12-03T14:27:49.903Z,73.22
2023-12-03T14:30:41.153Z,73.41
2023-12-03T14:33:31.833Z,73.40
2023-12-03T14:36:28.130Z,73.14
2023-12-03T14:39:20.076Z,73.41
2023-12-03T14:42:09.359Z,73.43
2023-12-03T14:44:59.294Z,73.42
2023-12-03T14:47:48.650Z,73.42
2023-12-03T14:50:40.359Z,73.51
2023-12-03T14:53:30.123Z,73.52
2023-12-03T14:56:30.469Z,73.65
2023-12-03T14:59:20.170Z,73.48
2023-12-03T15:02:10.478Z,73.47
2023-12-03T15:05:00.210Z,73.43
2023-12-03T15:07:49.105Z,73.54
2023-12-03T15:10:41.091Z,73.68
2023-12-03T15:13:29.840Z,73.49
2023-12-03T15:16:18.942Z,73.48
2023-12-03T15:19:08.565Z,73.60
2023-12-03T15:21:57.394Z,73.53
2023-12-03T15:24:47.537Z,73.53
2023-12-03T15:27:36.827Z,73.60
2023-12-03T15:30:29.800Z,73.74
2023-12-03T15:33:20.283Z,73.69
2023-12-03T15:36:11.271Z,73.69
2023-12-03T15:39:00.811Z,73.67
2023-12-03T15:41:49.726Z,73.88
2023-12-03T15:44:38.465Z,73.73
2023-12-03T15:47:27.689Z,73.57
2023-12-03T15:50:16.384Z,73.62
2023-12-03T15:53:05.306Z,73.60
2023-12-03T15:55:57.203Z,73.59
2023-12-03T15:58:46.561Z,73.71
2023-12-03T16:01:35.983Z,73.49
2023-12-03T16:04:26.214Z,73.88
2023-12-03T16:07:16.089Z,73.83
2023-12-03T16:10:07.576Z,74.00
2023-12-03T16:12:56.661Z,74.11
2023-12-03T16:15:45.748Z,74.00
2023-12-03T16:18:37.399Z,74.01
2023-12-03T16:21:27.351Z,73.98
2023-12-03T16:24:16.463Z,73.98
2023-12-03T16:27:06.822Z,74.02
2023-12-03T16:29:56.234Z,73.93
2023-12-03T16:32:46.544Z,74.11
2023-12-03T16:35:37.070Z,74.09
2023-12-03T16:38:26.700Z,74.20
2023-12-03T16:41:16.893Z,74.22
2023-12-03T16:44:07.555Z,74.06
2023-12-03T16:46:56.921Z,74.14
2023-12-03T16:49:52.824Z,74.24
2023-12-03T16:52:41.841Z,74.04
2023-12-03T16:55:35.228Z,74.05
2023-12-03T16:58:24.568Z,73.69
2023-12-03T17:01:15.490Z,73.97
2023-12-03T17:04:04.977Z,73.92
2023-12-03T17:06:57.376Z,74.23
2023-12-03T17:09:48.730Z,74.35
2023-12-03T17:12:47.567Z,74.26
2023-12-03T17:15:44.190Z,74.43
2023-12-03T17:18:35.951Z,74.69
2023-12-03T17:21:25.141Z,74.84
2023-12-03T17:24:27.895Z,74.94
2023-12-03T17:27:18.125Z,74.47
2023-12-03T17:30:08.498Z,74.46
2023-12-03T17:32:59.500Z,74.67
2023-12-03T17:35:49.786Z,74.63
2023-12-03T17:38:41.411Z,74.51
2023-12-03T17:41:30.552Z,74.59
2023-12-03T17:44:19.521Z,74.62
2023-12-03T17:47:09.124Z,74.73
2023-12-03T17:49:59.968Z,74.60
2023-12-03T17:52:49.022Z,74.59
2023-12-03T17:55:38.536Z,74.65
2023-12-03T17:58:27.906Z,74.49
2023-12-03T18:01:19.995Z,74.71
2023-12-03T18:04:14.192Z,74.39
2023-12-03T18:07:03.122Z,74.18
2023-12-03T18:09:53.187Z,74.41
2023-12-03T18:12:42.062Z,74.52
2023-12-03T18:15:34.586Z,74.50
2023-12-03T18:18:32.241Z,74.63
2023-12-03T18:21:59.865Z,74.89
2023-12-03T18:24:52.003Z,74.49
2023-12-03T18:27:41.991Z,74.57
2023-12-03T18:30:37.084Z,74.71
2023-12-03T18:33:29.809Z,74.92
2023-12-03T18:36:22.111Z,75.13
2023-12-03T18:39:13.790Z,75.09
2023-12-03T18:42:02.970Z,75.02
2023-12-03T18:44:53.287Z,74.89
2023-12-03T18:47:43.043Z,74.82
2023-12-03T18:50:33.338Z,74.89
2023-12-03T18:53:22.474Z,75.01
2023-12-03T18:56:13.210Z,75.11
2023-12-03T18:59:02.485Z,75.18
2023-12-03T19:01:52.632Z,75.31
2023-12-03T19:04:42.214Z,75.28
2023-12-03T19:07:32.476Z,75.48
2023-12-03T19:10:22.121Z,75.64
2023-12-03T19:13:17.121Z,75.65
2023-12-03T19:17:07.235Z,75.84
2023-12-03T19:19:57.881Z,75.32
2023-12-03T19:22:47.834Z,75.13
2023-12-03T19:25:38.728Z,75.53
2023-12-03T19:28:28.530Z,75.91
2023-12-03T19:31:19.356Z,76.18
2023-12-03T19:34:14.691Z,76.29
2023-12-03T19:37:04.166Z,76.17
2023-12-03T19:39:53.018Z,76.13
2023-12-03T19:42:42.327Z,76.15
2023-12-03T19:45:31.844Z,76.24
2023-12-03T19:48:22.211Z,76.25
2023-12-03T19:51:13.525Z,76.62
2023-12-03T19:54:02.459Z,76.44
2023-12-03T19:56:55.534Z,76.37
2023-12-03T19:59:48.576Z,76.43
2023-12-03T20:02:38.289Z,76.28
2023-12-03T20:05:30.119Z,76.21
2023-12-03T20:08:19.891Z,76.36
2023-12-03T20:11:09.242Z,76.52
2023-12-03T20:13:58.466Z,76.41
2023-12-03T20:16:48.279Z,76.64
2023-12-03T20:19:39.587Z,76.56
2023-12-03T20:22:30.195Z,76.68
2023-12-03T20:25:19.729Z,76.63
2023-12-03T20:28:08.964Z,76.94
2023-12-03T20:30:58.891Z,76.84
2023-12-03T20:33:49.103Z,77.09
2023-12-03T20:36:38.839Z,77.22
2023-12-03T20:39:28.148Z,77.34
2023-12-03T20:42:18.113Z,77.09
2023-12-03T20:45:07.923Z,77.17
2023-12-03T20:47:57.222Z,77.31
2023-12-03T20:50:47.188Z,77.39
2023-12-03T20:53:36.687Z,77.42
2023-12-03T20:56:25.482Z,77.10
2023-12-03T20:59:15.741Z,77.05
2023-12-03T21:02:07.484Z,77.09
2023-12-03T21:04:56.984Z,77.10
2023-12-03T21:07:45.837Z,77.26
2023-12-03T21:10:37.464Z,77.13
2023-12-03T21:13:26.218Z,77.05
2023-12-03T21:16:15.030Z,77.16
2023-12-03T21:19:04.279Z,77.24
2023-12-03T21:21:53.779Z,77.09
2023-12-03T21:24:46.184Z,77.35
2023-12-03T21:27:35.223Z,77.34
2023-12-03T21:30:25.164Z,77.48
2023-12-03T21:33:15.489Z,77.97
2023-12-03T21:36:05.445Z,77.69
2023-12-03T21:38:54.820Z,77.63
2023-12-03T21:41:44.005Z,77.41
2023-12-03T21:44:32.683Z,77.56
2023-12-03T21:47:21.842Z,77.41
2023-12-03T21:50:11.557Z,77.43
2023-12-03T21:53:02.006Z,77.56
2023-12-03T21:55:51.085Z,77.45
2023-12-03T21:58:40.388Z,77.61
2023-12-03T22:01:29.751Z,77.67
2023-12-03T22:04:19.894Z,77.68
2023-12-03T22:07:13.297Z,77.49
2023-12-03T22:10:08.664Z,77.66
2023-12-03T22:12:58.702Z,77.56
2023-12-03T22:15:50.133Z,77.61
2023-12-03T22:18:44.669Z,77.64
2023-12-03T22:21:34.177Z,77.40
2023-12-03T22:24:23.255Z,77.45
2023-12-03T22:27:13.073Z,77.15
2023-12-03T22:30:06.481Z,77.43
2023-12-03T22:33:04.866Z,76.87
2023-12-03T22:35:53.542Z,77.19
2023-12-03T22:38:43.021Z,77.37
2023-12-03T22:41:31.914Z,77.25
2023-12-03T22:44:21.205Z,77.46
2023-12-03T22:47:29.697Z,77.65
2023-12-03T22:50:18.434Z,77.54
2023-12-03T22:53:07.192Z,77.75
2023-12-03T22:55:56.133Z,77.77
2023-12-03T22:58:45.481Z,77.66
2023-12-03T23:01:35.640Z,77.82
2023-12-03T23:04:24.762Z,77.87
2023-12-03T23:07:14.285Z,77.78
2023-12-03T23:10:04.852Z,78.00
2023-12-03T23:12:53.750Z,77.97
2023-12-03T23:15:43.099Z,77.72
2023-12-03T23:18:32.967Z,77.91
2023-12-03T23:21:21.999Z,78.05
2023-12-03T23:24:11.193Z,78.13
2023-12-03T23:27:07.383Z,78.32
2023-12-03T23:30:11.916Z,77.93
2023-12-03T23:33:05.660Z,78.01
2023-12-03T23:35:54.904Z,77.67
2023-12-03T23:38:44.806Z,77.85
2023-12-03T23:41:33.715Z,77.86
2023-12-03T23:44:23.748Z,77.95
2023-12-03T23:47:15.366Z,78.26
2023-12-03T23:50:04.895Z,78.17
2023-12-03T23:52:57.538Z,78.32
2023-12-03T23:55:47.027Z,78.10
2023-12-03T23:58:36.717Z,78.20
